Time;durP1;ratioP1;P1;durP2;ratioP2;P2;SDS_P1;SDS_P2;PMS_P1;PMS_P2;Temp;Humidity;BMP_temperature;BMP_pressure;BME280_temperature;BME280_humidity;BME280_pressure;Samples;Min_cycle;Max_cycle;Signal;HPM_P1;HPM_P2
2021/12/26 00:01:49;;;;;;;13.98;7.97;;;;;;;-3.06;67.19;100775.97;4993415;28;20122;-58
2021/12/26 00:04:16;;;;;;;13.65;8.00;;;;;;;-3.07;66.64;100770.78;4993438;28;20066;-57
2021/12/26 00:06:42;;;;;;;14.00;7.40;;;;;;;-3.08;66.15;100772.63;4993106;28;20359;-57
2021/12/26 00:09:08;;;;;;;12.60;7.97;;;;;;;-3.05;66.54;100769.50;4993363;28;20513;-57
2021/12/26 00:11:33;;;;;;;14.27;7.57;;;;;;;-3.01;66.72;100769.88;4992791;28;20054;-56
2021/12/26 00:13:58;;;;;;;14.75;8.43;;;;;;;-3.00;66.21;100766.97;4993400;28;20038;-56
2021/12/26 00:16:24;;;;;;;13.10;7.72;;;;;;;-3.04;65.69;100765.75;4993072;28;20037;-56
2021/12/26 00:18:50;;;;;;;13.65;8.10;;;;;;;-3.05;65.78;100764.09;4993190;28;20030;-57
2021/12/26 00:21:18;;;;;;;15.68;8.52;;;;;;;-3.08;65.34;100769.91;4993252;28;20050;-56
2021/12/26 00:23:44;;;;;;;14.55;8.32;;;;;;;-3.04;66.45;100764.91;4997081;28;20044;-56
2021/12/26 00:26:09;;;;;;;16.05;8.25;;;;;;;-3.01;67.13;100770.72;4996537;28;20109;-56
2021/12/26 00:28:36;;;;;;;13.55;7.82;;;;;;;-2.99;65.81;100770.50;4996655;28;20023;-58
2021/12/26 00:31:02;;;;;;;13.80;8.55;;;;;;;-3.01;65.91;100759.88;4997019;28;20034;-57
2021/12/26 00:33:27;;;;;;;14.18;8.23;;;;;;;-3.01;66.57;100753.66;4995510;28;20394;-56
2021/12/26 00:35:53;;;;;;;16.08;8.40;;;;;;;-2.93;65.87;100755.28;4996957;28;20033;-56
2021/12/26 00:38:18;;;;;;;15.23;8.15;;;;;;;-2.95;65.96;100750.06;4997282;28;20470;-56
2021/12/26 00:40:44;;;;;;;14.73;7.32;;;;;;;-2.91;65.83;100748.59;4996690;28;20474;-55
2021/12/26 00:43:09;;;;;;;14.60;8.30;;;;;;;-2.99;65.25;100748.84;4996041;28;20034;-58
2021/12/26 00:45:35;;;;;;;15.20;7.82;;;;;;;-3.05;65.80;100742.44;4996403;28;20045;-56
2021/12/26 00:48:00;;;;;;;15.13;8.23;;;;;;;-3.05;65.99;100734.31;4996606;28;20493;-56
2021/12/26 00:50:30;;;;;;;13.88;7.72;;;;;;;-3.14;65.68;100722.09;4996252;28;20133;-55
2021/12/26 00:52:56;;;;;;;13.77;7.60;;;;;;;-3.13;66.30;100734.56;4996512;28;20034;-56
2021/12/26 00:55:22;;;;;;;14.60;8.80;;;;;;;-3.17;66.59;100741.47;4996522;28;20026;-57
2021/12/26 00:57:48;;;;;;;16.02;8.68;;;;;;;-3.22;66.39;100734.00;4996210;28;20106;-57
2021/12/26 01:00:17;;;;;;;13.93;8.02;;;;;;;-3.27;66.64;100728.41;4996549;28;20117;-55
2021/12/26 01:02:43;;;;;;;12.02;7.43;;;;;;;-3.26;67.41;100738.19;4997144;28;20030;-55
2021/12/26 01:05:09;;;;;;;14.73;8.65;;;;;;;-3.25;67.33;100737.13;4996459;28;20030;-56
2021/12/26 01:07:50;;;;;;;16.45;8.40;;;;;;;-3.20;68.05;100744.59;4995930;28;20081;-56
2021/12/26 01:10:18;;;;;;;16.55;8.50;;;;;;;-3.21;67.56;100749.19;4996402;28;20060;-57
2021/12/26 01:12:45;;;;;;;14.25;8.50;;;;;;;-3.22;66.60;100746.72;4996341;28;20054;-58
2021/12/26 01:15:11;;;;;;;13.45;8.88;;;;;;;-3.22;67.38;100758.34;4995107;28;20084;-58
2021/12/26 01:17:41;;;;;;;15.48;8.90;;;;;;;-3.19;67.86;100752.50;4996220;28;20042;-56
2021/12/26 01:20:12;;;;;;;14.85;8.10;;;;;;;-3.23;68.69;100743.16;4996587;28;20026;-56
2021/12/26 01:22:38;;;;;;;14.88;8.30;;;;;;;-3.16;67.57;100751.25;4995969;28;20374;-56
2021/12/26 01:25:05;;;;;;;15.52;8.27;;;;;;;-3.11;67.86;100753.28;4996209;28;20035;-56
2021/12/26 01:27:31;;;;;;;17.38;8.52;;;;;;;-3.08;68.34;100758.28;4995878;28;20039;-57
2021/12/26 01:29:56;;;;;;;16.20;9.00;;;;;;;-3.07;68.33;100759.94;4996025;28;20031;-58
2021/12/26 01:32:22;;;;;;;14.02;8.13;;;;;;;-3.05;67.99;100753.25;4995666;28;20492;-58
2021/12/26 01:34:47;;;;;;;15.27;8.50;;;;;;;-3.03;67.75;100755.75;4995697;28;20030;-58
2021/12/26 01:37:13;;;;;;;12.95;8.20;;;;;;;-3.05;67.43;100744.28;4994615;28;20030;-57
2021/12/26 01:39:38;;;;;;;16.50;8.70;;;;;;;-3.05;67.45;100752.41;4995859;28;20033;-58
2021/12/26 01:42:04;;;;;;;15.40;8.65;;;;;;;-3.06;67.67;100754.31;4995755;28;20385;-57
2021/12/26 01:44:31;;;;;;;14.60;7.88;;;;;;;-3.08;67.11;100750.97;4995381;28;20034;-58
2021/12/26 01:46:57;;;;;;;13.43;7.85;;;;;;;-3.07;67.45;100739.09;4995584;28;20054;-58
2021/12/26 01:49:28;;;;;;;15.80;8.60;;;;;;;-3.05;67.13;100741.59;4994876;28;20029;-57
2021/12/26 01:51:56;;;;;;;15.85;8.35;;;;;;;-3.08;67.86;100739.34;4994922;28;20473;-56
2021/12/26 01:54:32;;;;;;;13.43;8.48;;;;;;;-3.05;66.84;100736.19;4995583;28;20058;-57
2021/12/26 01:57:00;;;;;;;15.13;8.50;;;;;;;-3.15;67.10;100726.66;4995149;28;20026;-56
2021/12/26 01:59:26;;;;;;;17.75;8.98;;;;;;;-3.08;67.22;100737.44;4995525;28;20018;-57
2021/12/26 02:01:55;;;;;;;15.65;8.70;;;;;;;-3.18;67.37;100728.97;4995034;28;20381;-56
2021/12/26 02:04:20;;;;;;;15.75;8.48;;;;;;;-3.11;67.75;100728.94;4995555;28;20034;-57
2021/12/26 02:06:45;;;;;;;16.35;9.07;;;;;;;-3.09;67.59;100727.66;4994709;28;20064;-56
2021/12/26 02:09:12;;;;;;;17.73;8.95;;;;;;;-3.17;66.65;100725.22;4995295;28;20061;-56
2021/12/26 02:11:38;;;;;;;15.95;8.80;;;;;;;-3.16;67.24;100738.53;4995184;28;20030;-56
2021/12/26 02:14:03;;;;;;;15.25;8.40;;;;;;;-3.14;67.40;100736.44;4995151;28;20036;-55
2021/12/26 02:16:29;;;;;;;14.48;8.15;;;;;;;-3.11;67.34;100728.94;4995101;28;20026;-57
2021/12/26 02:18:54;;;;;;;16.38;8.35;;;;;;;-3.13;67.19;100729.97;4995121;28;20074;-57
2021/12/26 02:24:21;;;;;;;16.42;8.05;;;;;;;-3.12;68.21;100725.41;4994991;28;20116;-55
2021/12/26 02:29:30;;;;;;;14.45;9.00;;;;;;;-3.12;66.94;100722.72;4995325;28;20076;-55
2021/12/26 02:31:56;;;;;;;15.40;8.43;;;;;;;-3.13;66.79;100713.75;4994755;28;20058;-55
2021/12/26 02:34:21;;;;;;;17.70;9.10;;;;;;;-3.11;66.68;100718.13;4994549;28;20433;-54
2021/12/26 02:36:46;;;;;;;14.10;9.20;;;;;;;-3.14;67.56;100713.97;4994735;28;20101;-54
2021/12/26 02:39:12;;;;;;;15.57;8.52;;;;;;;-3.12;66.51;100714.59;4994231;28;20109;-54
2021/12/26 02:41:37;;;;;;;15.85;8.70;;;;;;;-3.13;67.30;100705.63;4994570;28;20077;-54
2021/12/26 02:44:04;;;;;;;16.85;8.40;;;;;;;-3.08;66.88;100718.50;4994309;28;20081;-55
2021/12/26 02:46:29;;;;;;;15.52;8.32;;;;;;;-3.12;66.69;100714.59;4993845;28;20027;-55
2021/12/26 02:48:54;;;;;;;15.95;8.70;;;;;;;-3.12;67.36;100711.88;4994445;28;20158;-55
2021/12/26 02:51:20;;;;;;;15.60;8.07;;;;;;;-3.10;67.58;100720.59;4994846;28;20046;-55
2021/12/26 02:53:47;;;;;;;15.70;8.93;;;;;;;-3.10;67.52;100708.94;4994358;28;20044;-55
2021/12/26 02:56:12;;;;;;;15.38;8.05;;;;;;;-3.09;67.43;100716.03;4994194;28;20030;-55
2021/12/26 02:58:37;;;;;;;14.25;7.97;;;;;;;-3.11;66.97;100705.41;4994116;28;20022;-54
2021/12/26 03:01:08;;;;;;;13.45;8.18;;;;;;;-3.13;67.44;100711.03;4994114;28;20394;-55
2021/12/26 03:03:34;;;;;;;12.98;8.38;;;;;;;-3.16;66.60;100716.06;4993929;28;20097;-54
2021/12/26 03:06:08;;;;;;;15.73;8.55;;;;;;;-3.20;67.36;100709.41;4994040;28;20046;-54
2021/12/26 03:08:34;;;;;;;17.85;9.18;;;;;;;-3.25;66.46;100720.06;4994572;28;20049;-54
2021/12/26 03:11:00;;;;;;;16.88;8.85;;;;;;;-3.27;66.99;100717.59;4994052;28;20478;-54
2021/12/26 03:13:26;;;;;;;17.95;8.45;;;;;;;-3.26;68.20;100718.41;4994255;28;20030;-53
2021/12/26 03:15:51;;;;;;;14.07;8.15;;;;;;;-3.27;68.29;100709.47;4993609;28;20030;-55
2021/12/26 03:18:17;;;;;;;14.82;8.30;;;;;;;-3.26;67.30;100721.13;4993629;28;20026;-53
2021/12/26 03:20:46;;;;;;;15.65;7.93;;;;;;;-3.29;67.54;100706.97;4993873;28;20038;-51
2021/12/26 03:23:14;;;;;;;15.02;8.52;;;;;;;-3.41;66.49;100697.91;4993760;28;20073;-53
2021/12/26 03:25:41;;;;;;;14.35;8.30;;;;;;;-3.34;67.39;100712.22;4993856;28;20113;-55
2021/12/26 03:28:07;;;;;;;14.88;8.32;;;;;;;-3.31;67.39;100700.97;4994050;28;20108;-56
2021/12/26 03:30:34;;;;;;;16.33;8.70;;;;;;;-3.29;68.33;100698.84;4993081;28;20113;-55
2021/12/26 03:33:02;;;;;;;15.05;8.57;;;;;;;-3.25;69.09;100693.84;4993707;28;20026;-56
2021/12/26 03:35:30;;;;;;;15.00;8.40;;;;;;;-3.25;68.45;100682.19;4993892;28;20053;-56
2021/12/26 03:37:57;;;;;;;15.48;8.35;;;;;;;-3.19;68.01;100695.69;4993653;28;20093;-55
2021/12/26 03:40:22;;;;;;;16.30;8.80;;;;;;;-3.17;67.79;100679.22;4993217;28;20036;-56
2021/12/26 03:42:51;;;;;;;14.65;8.23;;;;;;;-3.24;67.45;100678.44;4993544;28;20128;-56
2021/12/26 03:45:17;;;;;;;15.05;8.30;;;;;;;-3.26;68.53;100675.13;4993584;28;20157;-57
2021/12/26 03:47:42;;;;;;;15.25;8.60;;;;;;;-3.25;67.86;100680.31;4993370;28;20043;-57
2021/12/26 03:50:08;;;;;;;14.35;8.20;;;;;;;-3.25;68.37;100683.00;4993635;28;20129;-56
2021/12/26 03:52:34;;;;;;;16.88;8.60;;;;;;;-3.25;68.81;100679.50;4993017;28;20026;-57
2021/12/26 03:55:00;;;;;;;15.98;8.77;;;;;;;-3.22;68.16;100681.75;4993384;28;20030;-55
2021/12/26 03:57:25;;;;;;;14.82;8.50;;;;;;;-3.24;67.80;100676.56;4999247;28;20034;-55
2021/12/26 03:59:50;;;;;;;16.08;8.70;;;;;;;-3.30;67.37;100678.25;4999957;28;20030;-56
2021/12/26 04:02:16;;;;;;;18.08;9.25;;;;;;;-3.29;68.37;100690.72;4999942;28;20070;-54
2021/12/26 04:04:42;;;;;;;16.30;8.70;;;;;;;-3.25;68.64;100690.31;4999993;28;20044;-54
2021/12/26 04:07:09;;;;;;;16.67;9.50;;;;;;;-3.23;68.93;100686.34;4999678;28;20034;-54
2021/12/26 04:09:35;;;;;;;15.50;9.00;;;;;;;-3.22;68.30;100677.16;4999953;28;20061;-54
2021/12/26 04:12:00;;;;;;;14.98;9.10;;;;;;;-3.23;67.53;100677.41;4999874;28;20446;-54
2021/12/26 04:14:25;;;;;;;15.43;8.43;;;;;;;-3.27;67.91;100670.75;4999693;28;20436;-54
2021/12/26 04:16:51;;;;;;;14.10;8.38;;;;;;;-3.27;68.11;100668.03;4999843;28;20474;-56
2021/12/26 04:19:16;;;;;;;15.35;8.25;;;;;;;-3.31;67.39;100668.50;4999846;28;20029;-55
2021/12/26 04:21:42;;;;;;;14.43;8.30;;;;;;;-3.33;68.20;100667.03;4999735;28;20029;-54
2021/12/26 04:24:07;;;;;;;16.83;9.13;;;;;;;-3.37;68.53;100663.94;4999709;28;20105;-55
2021/12/26 04:26:33;;;;;;;15.27;8.50;;;;;;;-3.45;68.88;100666.91;4999862;28;20030;-55
2021/12/26 04:28:58;;;;;;;16.13;9.40;;;;;;;-3.53;68.68;100668.00;4999600;28;20076;-56
2021/12/26 04:31:23;;;;;;;16.27;8.57;;;;;;;-3.59;69.64;100670.75;4999545;28;20672;-56
2021/12/26 04:33:50;;;;;;;16.00;8.73;;;;;;;-3.70;69.34;100654.16;4999397;28;20034;-56
2021/12/26 04:36:16;;;;;;;15.88;8.80;;;;;;;-3.69;69.04;100663.09;4999660;28;20470;-55
2021/12/26 04:38:42;;;;;;;16.50;9.02;;;;;;;-3.73;70.26;100672.69;4999550;28;20030;-55
2021/12/26 04:41:07;;;;;;;17.60;8.85;;;;;;;-3.76;69.50;100674.78;4999437;28;20027;-55
2021/12/26 04:43:35;;;;;;;18.35;9.77;;;;;;;-3.83;69.92;100670.44;4999644;28;20070;-55
2021/12/26 04:46:03;;;;;;;18.35;9.40;;;;;;;-3.88;70.28;100667.56;4999709;28;20120;-57
2021/12/26 04:48:29;;;;;;;17.35;10.20;;;;;;;-3.93;70.68;100662.81;4999640;28;20026;-55
2021/12/26 04:50:54;;;;;;;16.25;9.10;;;;;;;-3.94;70.83;100659.25;4999375;28;20042;-55
2021/12/26 04:53:19;;;;;;;16.77;9.02;;;;;;;-3.95;70.63;100659.47;4999713;28;20038;-56
2021/12/26 04:55:45;;;;;;;18.98;9.32;;;;;;;-3.93;71.30;100665.50;4999542;28;20061;-56
2021/12/26 04:58:10;;;;;;;16.98;9.40;;;;;;;-3.99;71.34;100663.63;4999085;28;20409;-55
2021/12/26 05:00:35;;;;;;;15.52;8.60;;;;;;;-4.03;70.94;100659.72;4999340;28;20496;-57
2021/12/26 05:03:03;;;;;;;17.25;9.18;;;;;;;-4.04;71.64;100658.06;4999479;28;20078;-57
2021/12/26 05:05:29;;;;;;;18.77;9.70;;;;;;;-4.11;71.51;100652.66;4999573;28;20465;-56
2021/12/26 05:07:54;;;;;;;16.27;9.05;;;;;;;-4.13;71.20;100650.19;4997021;28;20038;-56
2021/12/26 05:10:20;;;;;;;18.70;9.45;;;;;;;-4.15;71.38;100654.97;4996341;28;20037;-56
2021/12/26 05:12:47;;;;;;;15.77;9.27;;;;;;;-4.19;71.75;100647.50;4996310;28;20034;-57
2021/12/26 05:15:15;;;;;;;23.90;10.60;;;;;;;-4.26;72.23;100644.81;4996078;28;20385;-56
2021/12/26 05:17:40;;;;;;;16.92;8.75;;;;;;;-4.23;72.39;100647.94;4996372;28;20022;-56
2021/12/26 05:20:08;;;;;;;17.85;9.30;;;;;;;-4.21;72.68;100647.72;4996172;28;20390;-58
2021/12/26 05:22:33;;;;;;;16.35;8.55;;;;;;;-4.23;72.63;100650.63;4996240;28;20148;-56
2021/12/26 05:24:58;;;;;;;17.20;9.30;;;;;;;-4.23;72.05;100649.81;4996040;28;20486;-56
2021/12/26 05:27:24;;;;;;;19.00;8.90;;;;;;;-4.27;72.54;100644.00;4995937;28;20045;-55
2021/12/26 05:29:49;;;;;;;17.63;9.15;;;;;;;-4.29;72.74;100648.78;4995881;28;20034;-55
2021/12/26 05:32:14;;;;;;;17.80;9.45;;;;;;;-4.31;72.69;100642.75;4996072;28;20038;-58
2021/12/26 05:34:39;;;;;;;16.63;8.73;;;;;;;-4.34;72.78;100648.56;4995830;28;20030;-57
2021/12/26 05:37:05;;;;;;;16.27;9.50;;;;;;;-4.32;73.75;100648.38;4995881;28;20030;-58
2021/12/26 05:39:30;;;;;;;15.63;8.88;;;;;;;-4.34;73.18;100645.06;4995834;28;20048;-57
2021/12/26 05:41:55;;;;;;;18.00;9.25;;;;;;;-4.35;72.63;100648.78;4995722;28;20026;-57
2021/12/26 05:44:20;;;;;;;17.00;9.02;;;;;;;-4.34;72.76;100637.78;4995626;28;20466;-58
2021/12/26 05:46:46;;;;;;;18.45;9.48;;;;;;;-4.35;73.03;100629.88;4995838;28;20030;-59
2021/12/26 05:49:12;;;;;;;17.73;9.40;;;;;;;-4.37;73.10;100632.81;4995952;28;20035;-55
2021/12/26 05:51:37;;;;;;;16.00;9.00;;;;;;;-4.36;72.28;100628.22;4995142;28;20082;-55
2021/12/26 05:54:03;;;;;;;16.92;8.70;;;;;;;-4.35;72.49;100627.19;4995638;28;20089;-56
2021/12/26 05:56:28;;;;;;;16.52;9.00;;;;;;;-4.35;72.79;100619.94;4995324;28;20393;-57
2021/12/26 05:58:53;;;;;;;16.88;9.05;;;;;;;-4.39;72.32;100618.69;4995431;28;20035;-58
2021/12/26 06:01:19;;;;;;;17.15;9.52;;;;;;;-4.41;72.98;100626.16;4995594;28;20036;-57
2021/12/26 06:03:44;;;;;;;18.40;9.43;;;;;;;-4.42;72.79;100635.31;4995291;28;20038;-57
2021/12/26 06:06:09;;;;;;;17.33;8.73;;;;;;;-4.43;72.91;100622.84;4995474;28;20045;-59
2021/12/26 06:08:35;;;;;;;16.80;8.90;;;;;;;-4.44;72.74;100632.81;4994564;28;20150;-56
2021/12/26 06:11:01;;;;;;;17.73;9.15;;;;;;;-4.44;73.06;100638.22;4994842;28;20034;-57
2021/12/26 06:13:26;;;;;;;16.08;8.70;;;;;;;-4.48;72.72;100633.47;4995010;28;20034;-56
2021/12/26 06:15:54;;;;;;;17.10;8.95;;;;;;;-4.50;72.73;100630.97;4994825;28;20033;-58
2021/12/26 06:18:19;;;;;;;15.52;8.95;;;;;;;-4.52;72.73;100634.91;4995039;28;20026;-56
2021/12/26 06:20:44;;;;;;;15.10;9.18;;;;;;;-4.57;73.02;100628.28;4993552;28;20057;-57
2021/12/26 06:23:12;;;;;;;17.23;9.38;;;;;;;-4.57;73.39;100624.75;4995064;28;20034;-55
2021/12/26 06:25:38;;;;;;;16.77;9.23;;;;;;;-4.59;73.92;100618.75;4994643;28;20045;-55
2021/12/26 06:28:03;;;;;;;16.63;9.40;;;;;;;-4.58;73.55;100628.50;4994929;28;20038;-57
2021/12/26 06:30:29;;;;;;;17.65;9.00;;;;;;;-4.60;73.69;100626.00;4994796;28;20037;-57
2021/12/26 06:32:54;;;;;;;17.52;9.40;;;;;;;-4.61;73.57;100620.81;4994762;28;20034;-55
2021/12/26 06:35:19;;;;;;;16.77;9.35;;;;;;;-4.64;74.21;100627.47;4994810;28;20117;-57
2021/12/26 06:37:44;;;;;;;16.98;9.75;;;;;;;-4.74;74.10;100611.69;4994658;28;20045;-56
2021/12/26 06:40:12;;;;;;;18.60;10.32;;;;;;;-4.71;74.33;100627.50;4994770;28;20058;-54
2021/12/26 06:42:41;;;;;;;15.77;9.48;;;;;;;-4.69;74.51;100619.16;4994619;28;20026;-55
2021/12/26 06:45:09;;;;;;;17.90;9.75;;;;;;;-4.72;74.82;100616.88;4994689;28;20027;-54
2021/12/26 06:47:35;;;;;;;17.58;9.40;;;;;;;-4.68;74.63;100615.44;4994340;28;20386;-55
2021/12/26 06:50:01;;;;;;;16.77;8.93;;;;;;;-4.66;74.60;100618.75;4994539;28;20090;-55
2021/12/26 06:52:26;;;;;;;17.77;8.98;;;;;;;-4.67;74.82;100618.94;4994407;28;20177;-56
2021/12/26 06:54:51;;;;;;;15.90;9.30;;;;;;;-4.64;74.19;100619.38;4994290;28;20034;-55
2021/12/26 06:57:17;;;;;;;16.08;8.98;;;;;;;-4.64;74.27;100619.38;4994536;28;20061;-55
2021/12/26 06:59:42;;;;;;;17.40;8.60;;;;;;;-4.63;74.65;100617.50;4994250;28;20030;-55
2021/12/26 07:02:08;;;;;;;16.75;9.35;;;;;;;-4.61;75.09;100616.25;4994143;28;20149;-55
2021/12/26 07:04:34;;;;;;;17.27;9.10;;;;;;;-4.60;74.83;100615.19;4993998;28;20417;-55
2021/12/26 07:06:59;;;;;;;18.92;9.27;;;;;;;-4.62;74.26;100617.28;4994064;28;20041;-57
2021/12/26 07:09:24;;;;;;;17.48;9.65;;;;;;;-4.63;74.65;100612.94;4993963;28;20030;-56
2021/12/26 07:11:50;;;;;;;18.48;9.23;;;;;;;-4.64;74.48;100616.69;4993981;28;20053;-54
2021/12/26 07:14:15;;;;;;;15.15;8.43;;;;;;;-4.66;75.35;100623.31;4993793;28;20030;-53
2021/12/26 07:16:40;;;;;;;15.73;8.30;;;;;;;-4.67;75.29;100622.50;4993645;28;20062;-55
2021/12/26 07:19:05;;;;;;;18.48;8.60;;;;;;;-4.66;75.38;100623.31;4994036;28;20058;-57
2021/12/26 07:21:31;;;;;;;15.40;8.07;;;;;;;-4.69;74.92;100619.16;4994153;28;20464;-57
2021/12/26 07:23:56;;;;;;;17.30;8.68;;;;;;;-4.70;75.54;100612.97;4992558;28;20081;-57
2021/12/26 07:26:24;;;;;;;16.50;8.80;;;;;;;-4.71;75.34;100613.16;4993593;28;20041;-57
2021/12/26 07:28:49;;;;;;;15.15;8.80;;;;;;;-4.73;75.63;100616.06;4994096;28;20113;-56
2021/12/26 07:31:14;;;;;;;18.25;8.88;;;;;;;-4.69;75.62;100619.16;4993567;28;20113;-57
2021/12/26 07:33:40;;;;;;;17.63;8.85;;;;;;;-4.72;75.44;100614.19;4993727;28;20034;-57
2021/12/26 07:36:06;;;;;;;17.02;9.27;;;;;;;-4.72;75.96;100608.78;4993840;28;20496;-57
2021/12/26 07:38:31;;;;;;;18.77;9.55;;;;;;;-4.74;75.67;100611.69;4993475;28;20453;-57
2021/12/26 07:40:56;;;;;;;16.80;8.77;;;;;;;-4.74;76.27;100617.09;4993215;28;20034;-55
2021/12/26 07:43:22;;;;;;;17.85;9.05;;;;;;;-4.74;75.82;100621.69;4993426;28;20026;-55
2021/12/26 07:45:47;;;;;;;17.13;9.20;;;;;;;-4.74;76.88;100608.19;4993235;28;20038;-55
2021/12/26 07:48:12;;;;;;;17.83;9.93;;;;;;;-4.74;76.68;100613.59;4993373;28;20034;-55
2021/12/26 07:50:37;;;;;;;18.48;9.45;;;;;;;-4.74;76.55;100610.88;4993501;28;20482;-56
2021/12/26 07:53:08;;;;;;;18.13;9.60;;;;;;;-4.71;76.65;100610.44;4975186;28;20070;-56
2021/12/26 07:55:33;;;;;;;16.95;9.32;;;;;;;-4.69;76.55;100616.47;4972186;28;20066;-56
2021/12/26 07:57:59;;;;;;;17.05;9.60;;;;;;;-4.65;76.83;100622.28;4971963;28;20117;-56
2021/12/26 08:00:24;;;;;;;17.02;8.80;;;;;;;-4.67;76.26;100622.50;4971668;28;20031;-56
2021/12/26 08:02:51;;;;;;;18.25;8.98;;;;;;;-4.63;76.88;100609.41;4971679;28;20062;-56
2021/12/26 08:05:17;;;;;;;15.93;8.90;;;;;;;-4.62;77.04;100611.88;4971768;28;20083;-56
2021/12/26 08:07:43;;;;;;;17.05;8.75;;;;;;;-4.59;76.74;100613.34;4971670;28;20394;-56
2021/12/26 08:10:09;;;;;;;17.17;8.57;;;;;;;-4.56;76.59;100618.31;4970412;28;20039;-55
2021/12/26 08:12:35;;;;;;;16.17;8.80;;;;;;;-4.52;76.70;100622.25;4971762;28;20117;-56
2021/12/26 08:15:02;;;;;;;17.20;8.77;;;;;;;-4.49;76.78;100613.75;4971647;28;20437;-57
2021/12/26 08:17:28;;;;;;;15.93;8.32;;;;;;;-4.44;76.78;100629.31;4971750;28;20376;-56
2021/12/26 08:19:53;;;;;;;17.30;8.95;;;;;;;-4.42;77.08;100628.06;4971827;28;20042;-56
2021/12/26 08:22:19;;;;;;;18.73;9.18;;;;;;;-4.42;76.25;100625.34;4971207;28;20047;-56
2021/12/26 08:24:45;;;;;;;17.58;8.65;;;;;;;-4.39;76.47;100624.91;4971730;28;20401;-57
2021/12/26 08:27:10;;;;;;;16.63;8.45;;;;;;;-4.35;77.23;100627.19;4971782;28;20526;-57
2021/12/26 08:29:36;;;;;;;17.38;8.18;;;;;;;-4.31;76.74;100634.66;4971593;28;20042;-57
2021/12/26 08:32:02;;;;;;;17.70;8.35;;;;;;;-4.25;77.40;100630.28;4971583;28;20118;-57
2021/12/26 08:34:27;;;;;;;16.40;8.60;;;;;;;-4.21;76.50;100631.53;4969839;28;20045;-57
2021/12/26 08:37:02;;;;;;;16.92;8.25;;;;;;;-4.16;76.92;100630.88;4971306;28;20493;-57
2021/12/26 08:39:30;;;;;;;16.77;8.45;;;;;;;-4.06;76.24;100631.22;4972184;28;20023;-56
2021/12/26 08:41:55;;;;;;;18.02;8.35;;;;;;;-4.01;76.32;100625.19;4971767;28;20472;-58
2021/12/26 08:44:21;;;;;;;16.58;8.65;;;;;;;-3.92;75.86;100623.91;4974620;28;20376;-57
2021/12/26 08:46:47;;;;;;;18.90;8.85;;;;;;;-3.84;76.34;100617.41;4975266;28;20031;-57
2021/12/26 08:49:13;;;;;;;18.40;9.38;;;;;;;-3.79;75.87;100617.63;4974908;28;20037;-56
2021/12/26 08:51:39;;;;;;;16.83;8.10;;;;;;;-3.71;75.33;100622.75;4974786;28;20058;-53
2021/12/26 08:54:05;;;;;;;18.58;8.88;;;;;;;-3.62;75.76;100620.63;4975070;28;20033;-56
2021/12/26 08:56:30;;;;;;;17.02;8.60;;;;;;;-3.53;75.71;100637.44;4974995;28;20034;-55
2021/12/26 08:58:56;;;;;;;16.73;8.27;;;;;;;-3.43;74.84;100643.19;4975060;28;20666;-55
2021/12/26 09:01:21;;;;;;;18.38;8.27;;;;;;;-3.38;74.84;100632.53;4974786;28;20123;-55
2021/12/26 09:03:46;;;;;;;17.33;8.77;;;;;;;-3.31;75.00;100641.44;4974748;28;20037;-55
2021/12/26 09:06:12;;;;;;;18.00;8.68;;;;;;;-3.25;75.20;100628.91;4984873;28;20069;-52
2021/12/26 09:08:38;;;;;;;19.02;9.13;;;;;;;-3.22;74.03;100623.06;4994136;28;20034;-55
2021/12/26 09:11:03;;;;;;;18.42;8.68;;;;;;;-3.16;74.99;100626.75;4994032;28;20031;-55
2021/12/26 09:13:28;;;;;;;17.58;8.75;;;;;;;-3.09;74.45;100618.59;4994261;28;20394;-53
2021/12/26 09:15:54;;;;;;;18.92;8.93;;;;;;;-3.04;74.87;100622.31;4993997;28;20114;-55
2021/12/26 09:18:19;;;;;;;18.20;9.07;;;;;;;-3.00;73.90;100612.66;4994004;28;20030;-55
2021/12/26 09:20:44;;;;;;;20.02;8.93;;;;;;;-2.93;74.53;100628.03;4993685;28;20038;-54
2021/12/26 09:23:10;;;;;;;19.33;9.18;;;;;;;-2.89;74.02;100616.56;4993931;28;20041;-55
2021/12/26 09:25:35;;;;;;;19.30;9.00;;;;;;;-2.94;73.90;100602.84;4994119;28;20508;-55
2021/12/26 09:28:00;;;;;;;18.42;8.57;;;;;;;-2.82;74.01;100616.47;4994097;28;20031;-55
2021/12/26 09:30:25;;;;;;;19.02;8.95;;;;;;;-2.77;73.90;100622.06;4993927;28;20026;-55
2021/12/26 09:32:51;;;;;;;15.82;8.85;;;;;;;-2.73;74.35;100622.44;4993717;28;20023;-55
2021/12/26 09:35:17;;;;;;;17.92;9.35;;;;;;;-2.68;73.90;100614.44;4991740;28;20034;-55
2021/12/26 09:37:44;;;;;;;18.80;9.38;;;;;;;-2.66;73.78;100615.06;4991977;28;20485;-55
2021/12/26 09:40:10;;;;;;;21.35;9.73;;;;;;;-2.64;73.40;100618.38;4993117;28;20041;-55
2021/12/26 09:42:37;;;;;;;16.85;9.00;;;;;;;-2.60;73.64;100613.34;4993346;28;20046;-56
2021/12/26 09:45:04;;;;;;;16.65;9.10;;;;;;;-2.55;73.03;100611.63;4993658;28;20504;-56
2021/12/26 09:47:29;;;;;;;19.17;9.20;;;;;;;-2.56;72.75;100601.03;4993515;28;20027;-56
2021/12/26 09:49:55;;;;;;;18.30;9.25;;;;;;;-2.53;73.59;100611.38;4993167;28;20525;-56
2021/12/26 09:52:20;;;;;;;19.20;9.13;;;;;;;-2.48;74.43;100608.84;4993655;28;20026;-53
2021/12/26 09:54:46;;;;;;;21.15;9.55;;;;;;;-2.39;73.93;100618.34;4992983;28;20134;-55
2021/12/26 09:57:12;;;;;;;17.17;9.23;;;;;;;-2.32;74.01;100612.00;4993427;28;20034;-55
2021/12/26 09:59:37;;;;;;;19.75;9.20;;;;;;;-2.29;73.89;100604.25;4993489;28;20109;-55
2021/12/26 10:02:09;;;;;;;19.00;9.70;;;;;;;-2.29;73.22;100604.25;4993244;28;20554;-55
2021/12/26 10:04:35;;;;;;;17.35;9.13;;;;;;;-2.32;73.77;100598.44;4993072;28;20033;-56
2021/12/26 10:07:09;;;;;;;18.73;9.25;;;;;;;-2.21;74.07;100605.84;4993378;28;20052;-56
2021/12/26 10:09:43;;;;;;;18.63;9.18;;;;;;;-2.12;73.86;100599.03;4993475;28;20042;-56
2021/12/26 10:12:12;;;;;;;18.85;9.35;;;;;;;-2.10;73.58;100579.84;4993232;28;20046;-56
2021/12/26 10:14:38;;;;;;;19.52;9.20;;;;;;;-2.03;74.03;100586.00;4993292;28;20023;-56
2021/12/26 10:17:09;;;;;;;19.75;9.57;;;;;;;-2.05;73.97;100588.13;4993099;28;20675;-56
2021/12/26 10:19:37;;;;;;;18.42;9.10;;;;;;;-1.99;73.75;100579.06;4992986;28;20101;-56
2021/12/26 10:22:04;;;;;;;19.98;9.13;;;;;;;-1.89;73.88;100576.63;4992307;28;20040;-56
2021/12/26 10:24:38;;;;;;;20.25;9.70;;;;;;;-1.82;74.17;100581.97;4992488;28;20494;-56
2021/12/26 10:27:10;;;;;;;18.88;9.95;;;;;;;-1.77;73.59;100582.09;4992391;28;20026;-56
2021/12/26 10:30:04;;;;;;;19.50;9.70;;;;;;;-1.69;74.06;100564.69;4988801;28;20482;-56
2021/12/26 10:32:37;;;;;;;21.35;9.10;;;;;;;-1.70;73.58;100556.78;4990797;28;20045;-56
2021/12/26 10:35:12;;;;;;;20.27;9.50;;;;;;;-1.59;73.69;100562.22;4991519;28;20053;-56
2021/12/26 10:37:49;;;;;;;19.83;9.32;;;;;;;-1.49;74.03;100548.09;4992627;28;20056;-56
2021/12/26 10:40:23;;;;;;;19.58;9.63;;;;;;;-1.48;73.59;100546.22;4992639;28;20114;-56
2021/12/26 10:42:54;;;;;;;19.58;9.88;;;;;;;-1.47;73.81;100537.03;4992787;28;20038;-57
2021/12/26 10:45:26;;;;;;;19.52;9.38;;;;;;;-1.45;73.84;100534.88;4992575;28;20046;-55
2021/12/26 10:47:56;;;;;;;19.88;9.15;;;;;;;-1.45;73.58;100533.00;4992481;28;20034;-56
2021/12/26 10:50:24;;;;;;;21.08;9.65;;;;;;;-1.43;73.98;100533.59;4992256;28;20073;-55
2021/12/26 10:53:04;;;;;;;21.95;9.80;;;;;;;-1.42;74.04;100526.28;4992406;28;20040;-56
2021/12/26 10:55:32;;;;;;;19.27;9.40;;;;;;;-1.32;74.16;100539.28;4991988;28;20110;-56
2021/12/26 10:58:00;;;;;;;20.50;9.65;;;;;;;-1.27;74.65;100534.78;4989056;28;20474;-56
2021/12/26 11:00:29;;;;;;;19.88;9.45;;;;;;;-1.29;74.24;100528.78;4991805;28;20038;-56
2021/12/26 11:03:04;;;;;;;22.48;9.68;;;;;;;-1.19;74.54;100535.50;4992227;28;20038;-56
2021/12/26 11:05:42;;;;;;;21.08;10.10;;;;;;;-1.15;73.98;100542.94;4991460;28;20037;-56
2021/12/26 11:08:13;;;;;;;19.60;10.13;;;;;;;-1.18;74.05;100537.97;4990151;28;20033;-57
2021/12/26 11:10:51;;;;;;;20.27;10.00;;;;;;;-1.23;74.48;100521.59;4991827;28;20037;-56
2021/12/26 11:13:24;;;;;;;20.52;10.35;;;;;;;-1.08;74.37;100540.09;4991672;28;20041;-56
2021/12/26 11:15:54;;;;;;;18.30;9.30;;;;;;;-1.07;73.99;100527.38;4991982;28;20034;-57
2021/12/26 11:18:20;;;;;;;19.63;9.80;;;;;;;-1.03;73.25;100528.53;4991391;28;20084;-56
2021/12/26 11:20:48;;;;;;;21.80;10.25;;;;;;;-1.05;73.92;100522.53;4991999;28;20030;-57